This is the latest recevied weather packets stored in our database for station/object HA9OZD-18. If no packets are shown the sender has not sent any weather packets the latest 10 day(s).
| Time | Temp. | Humidity | Pressure | Rain* | Wind** | Luminosity | Snow |
|---|---|---|---|---|---|---|---|
| 1788144290 | 18.33° C | 46% | 1017.4 hPa | - | - | - | - |
| 1788140690 | 18.33° C | 44% | 1017.6 hPa | - | - | - | - |
| 1788137133 | 18.33° C | 42% | 1017.6 hPa | - | - | - | - |
| 1788137089 | 18.33° C | 42% | 1017.6 hPa | - | - | - | - |
| 1788133563 | 18.33° C | 42% | 1017.8 hPa | - | - | - | - |
| 1788133489 | 18.33° C | 42% | 1017.8 hPa | - | - | - | - |
| 1788129899 | 18.89° C | 41% | 1018 hPa | - | - | - | - |
| 1788129889 | 18.89° C | 41% | 1018 hPa | - | - | - | - |
| 1788126289 | 18.89° C | 42% | 1018 hPa | - | - | - | - |
| 1788122687 | 18.89° C | 41% | 1017.8 hPa | - | - | - | - |
| 1788119087 | 19.44° C | 40% | 1017.8 hPa | - | - | - | - |
| 1788115510 | 19.44° C | 40% | 1017.6 hPa | - | - | - | - |
| 1788111910 | 20° C | 38% | 1017.3 hPa | - | - | - | - |
| 1788108310 | 21.11° C | 34% | 1017.1 hPa | - | - | - | - |
| 1788104717 | 22.78° C | 32% | - | - | - | - | - |
| 1788104709 | 22.78° C | 32% | 1017.1 hPa | - | - | - | - |
| 1788101109 | 23.89° C | 30% | 1017.2 hPa | - | - | - | - |
| 1788097509 | 25° C | 26% | 1017.4 hPa | - | - | - | - |
| 1788093909 | 30.56° C | 22% | 1017.6 hPa | - | - | - | - |
| 1788090308 | 25.56° C | 32% | 1017.8 hPa | - | - | - | - |
| 1788086708 | 22.78° C | 35% | 1018.1 hPa | - | - | - | - |
| 1788083108 | 22.22° C | 41% | 1018.2 hPa | - | - | - | - |
| 1788079507 | 20.56° C | 47% | 1018.1 hPa | - | - | - | - |
| 1788075907 | 19.44° C | 63% | 1017.8 hPa | - | - | - | - |
| 1788072502 | 17.22° C | 77% | 1017.5 hPa | - | - | - | - |
* Rain since midnight (hover to see other rain measurements)
** Current wind speed in m/s (hover to see current wind gust speed)